Time,TemperatureF,DewpointF,PressureIn,WindDirection,WindDirectionDegrees,WindSpeedMPH,WindSpeedGustMPH,Humidity,HourlyPrecipIn,Conditions,Clouds,dailyrainin,SoftwareType,DateUTC
2013-08-01 00:13:00,59.0,58.0,29.92,SSW,204,3.0,8.0,96,0.01,,,0.04,,2013-08-01 04:13:00,
2013-08-01 00:22:00,59.0,58.0,29.92,SSW,204,3.0,8.0,96,0.01,,,0.04,,2013-08-01 04:22:00,
2013-08-01 00:33:00,59.0,58.0,29.92,SSW,203,1.0,3.0,96,0.01,,,0.04,,2013-08-01 04:33:00,
2013-08-01 00:52:00,58.0,57.0,29.91,SE,145,1.0,5.0,96,0.01,,,0.04,,2013-08-01 04:52:00,
2013-08-01 01:13:00,58.0,57.0,29.91,SSE,168,1.0,4.0,96,0.01,,,0.05,,2013-08-01 05:13:00,
2013-08-01 01:33:00,57.0,56.0,29.91,SSE,168,1.0,2.0,96,0.01,,,0.05,,2013-08-01 05:33:00,
2013-08-01 01:43:00,57.0,56.0,29.91,SSE,168,1.0,2.0,96,0.01,,,0.05,,2013-08-01 05:43:00,
2013-08-01 01:53:00,58.0,57.0,29.91,South,171,0.0,3.0,97,0.01,,,0.05,,2013-08-01 05:53:00,
2013-08-01 02:23:00,58.0,57.0,29.90,South,171,0.0,3.0,97,0.01,,,0.05,,2013-08-01 06:23:00,
2013-08-01 02:42:00,57.0,56.0,29.88,South,171,2.0,4.0,98,0.01,,,0.06,,2013-08-01 06:42:00,
2013-08-01 02:52:00,58.0,57.0,29.88,South,171,3.0,4.0,98,0.01,,,0.06,,2013-08-01 06:52:00,
2013-08-01 03:03:00,58.0,57.0,29.89,South,171,1.0,4.0,98,0.01,,,0.06,,2013-08-01 07:03:00,
2013-08-01 03:12:00,58.0,57.0,29.89,South,171,1.0,4.0,98,0.01,,,0.06,,2013-08-01 07:12:00,
2013-08-01 03:32:00,57.0,56.0,29.88,South,171,1.0,3.0,98,0.01,,,0.06,,2013-08-01 07:32:00,
2013-08-01 03:43:00,57.0,56.0,29.88,South,171,1.0,3.0,98,0.01,,,0.06,,2013-08-01 07:43:00,
2013-08-01 03:53:00,57.0,56.0,29.88,South,171,1.0,3.0,98,0.01,,,0.06,,2013-08-01 07:53:00,
2013-08-01 04:07:00,57.0,57.0,29.88,South,171,1.0,3.0,99,0.00,,,0.05,,2013-08-01 08:07:00,
2013-08-01 04:16:00,57.0,56.0,29.88,South,171,0.0,3.0,98,0.00,,,0.05,,2013-08-01 08:16:00,
2013-08-01 04:27:00,57.0,56.0,29.88,South,171,2.0,4.0,98,0.00,,,0.05,,2013-08-01 08:27:00,
2013-08-01 04:40:00,57.0,56.0,29.88,South,171,3.0,4.0,98,0.01,,,0.06,,2013-08-01 08:40:00,
2013-08-01 04:46:00,57.0,57.0,29.88,South,171,1.0,4.0,99,0.01,,,0.06,,2013-08-01 08:46:00,
2013-08-01 05:00:00,57.0,56.0,29.88,South,171,3.0,4.0,98,0.01,,,0.06,,2013-08-01 09:00:00,
2013-08-01 05:17:00,57.0,56.0,29.88,South,171,2.0,4.0,98,0.01,,,0.06,,2013-08-01 09:17:00,
2013-08-01 05:22:00,57.0,56.0,29.88,South,171,0.0,4.0,98,0.01,,,0.06,,2013-08-01 09:22:00,
2013-08-01 05:44:00,57.0,56.0,29.88,SSW,195,3.0,7.0,98,0.01,,,0.06,,2013-08-01 09:44:00,
2013-08-01 05:52:00,57.0,57.0,29.88,South,181,4.0,7.0,99,0.01,,,0.06,,2013-08-01 09:52:00,
2013-08-01 06:00:00,57.0,56.0,29.88,South,175,3.0,7.0,98,0.01,,,0.06,,2013-08-01 10:00:00,
2013-08-01 06:16:00,57.0,57.0,29.88,South,174,3.0,6.0,99,0.00,,,0.06,,2013-08-01 10:16:00,
2013-08-01 06:30:00,56.0,55.0,29.88,South,184,3.0,6.0,98,0.00,,,0.06,,2013-08-01 10:30:00,
2013-08-01 06:56:00,57.0,57.0,29.89,South,184,1.0,5.0,99,0.01,,,0.07,,2013-08-01 10:56:00,
2013-08-01 07:14:00,57.0,57.0,29.88,South,179,3.0,3.0,99,0.01,,,0.07,,2013-08-01 11:14:00,
2013-08-01 07:35:00,58.0,57.0,29.89,South,179,2.0,4.0,98,0.01,,,0.07,,2013-08-01 11:35:00,
2013-08-01 07:43:00,58.0,58.0,29.89,NNW,336,1.0,3.0,99,0.00,,,0.07,,2013-08-01 11:43:00,
2013-08-01 08:14:00,59.0,59.0,29.89,SE,139,3.0,5.0,99,0.01,,,0.08,,2013-08-01 12:14:00,
2013-08-01 08:21:00,59.0,59.0,29.89,SE,139,3.0,5.0,99,0.01,,,0.08,,2013-08-01 12:21:00,
2013-08-01 10:00:00,64.0,64.0,29.89,SSE,166,2.0,4.0,99,0.02,,,0.10,,2013-08-01 14:00:00,
2013-08-01 10:16:00,64.0,64.0,29.89,SSE,166,2.0,4.0,99,0.02,,,0.10,,2013-08-01 14:16:00,
2013-08-01 11:22:00,67.0,61.0,29.90,North,0,1.0,8.0,81,0.02,,,0.12,,2013-08-01 15:22:00,
2013-08-01 11:38:00,67.0,60.0,29.91,NNW,335,6.0,9.0,79,0.02,,,0.12,,2013-08-01 15:38:00,
2013-08-01 12:03:00,68.0,59.0,29.91,NW,305,4.0,9.0,72,0.02,,,0.13,,2013-08-01 16:03:00,
2013-08-01 12:30:00,69.0,59.0,29.91,NNW,340,3.0,6.0,71,0.01,,,0.13,,2013-08-01 16:30:00,
2013-08-01 12:54:00,70.0,59.0,29.91,West,266,3.0,8.0,68,0.02,,,0.14,,2013-08-01 16:54:00,
2013-08-01 13:15:00,70.0,58.0,29.91,SSE,168,5.0,10.0,66,0.01,,,0.14,,2013-08-01 17:15:00,
2013-08-01 13:21:00,70.0,58.0,29.91,South,180,1.0,10.0,65,0.01,,,0.14,,2013-08-01 17:21:00,
2013-08-01 13:44:00,70.0,58.0,29.91,SSE,164,0.0,8.0,66,0.02,,,0.15,,2013-08-01 17:44:00,
2013-08-01 13:52:00,70.0,58.0,29.91,SSE,164,0.0,8.0,66,0.02,,,0.15,,2013-08-01 17:52:00,
2013-08-01 14:15:00,72.0,59.0,29.91,SSE,160,4.0,10.0,63,0.01,,,0.15,,2013-08-01 18:15:00,
2013-08-01 14:35:00,71.0,58.0,29.90,SE,133,6.0,10.0,63,0.02,,,0.16,,2013-08-01 18:35:00,
2013-08-01 14:53:00,71.0,56.0,29.90,SSE,167,3.0,13.0,60,0.03,,,0.18,,2013-08-01 18:53:00,
2013-08-01 15:32:00,72.0,57.0,29.90,SE,129,2.0,10.0,60,0.14,,,0.29,,2013-08-01 19:32:00,
2013-08-01 15:41:00,72.0,57.0,29.90,ESE,122,6.0,9.0,59,0.15,,,0.30,,2013-08-01 19:41:00,
2013-08-01 15:53:00,72.0,56.0,29.91,South,169,3.0,12.0,57,0.17,,,0.33,,2013-08-01 19:53:00,
2013-08-01 16:00:00,72.0,56.0,29.91,South,169,3.0,12.0,57,0.17,,,0.33,,2013-08-01 20:00:00,
2013-08-01 16:20:00,72.0,57.0,29.91,NNE,19,4.0,11.0,60,0.16,,,0.36,,2013-08-01 20:20:00,
2013-08-01 16:49:00,71.0,58.0,29.91,SE,146,8.0,12.0,63,0.10,,,0.39,,2013-08-01 20:49:00,
2013-08-01 16:58:00,71.0,58.0,29.91,SE,146,8.0,12.0,63,0.10,,,0.39,,2013-08-01 20:58:00,
2013-08-01 17:14:00,71.0,57.0,29.92,South,169,9.0,13.0,61,0.07,,,0.41,,2013-08-01 21:14:00,
2013-08-01 17:27:00,71.0,57.0,29.91,North,3,2.0,9.0,61,0.05,,,0.42,,2013-08-01 21:27:00,
2013-08-01 17:34:00,71.0,57.0,29.91,North,3,2.0,9.0,61,0.05,,,0.42,,2013-08-01 21:34:00,
2013-08-01 17:53:00,69.0,56.0,29.91,WNW,298,3.0,11.0,64,0.06,,,0.43,,2013-08-01 21:53:00,
2013-08-01 18:09:00,69.0,56.0,29.91,WNW,298,3.0,11.0,64,0.06,,,0.43,,2013-08-01 22:09:00,
2013-08-01 18:35:00,69.0,57.0,29.90,WNW,292,0.0,6.0,66,0.04,,,0.45,,2013-08-01 22:35:00,
2013-08-01 18:46:00,69.0,57.0,29.90,WNW,292,0.0,6.0,66,0.04,,,0.45,,2013-08-01 22:46:00,
2013-08-01 18:55:00,69.0,58.0,29.91,SSW,210,1.0,8.0,68,0.04,,,0.45,,2013-08-01 22:55:00,
2013-08-01 19:33:00,71.0,59.0,29.90,ESE,122,4.0,7.0,67,0.03,,,0.47,,2013-08-01 23:33:00,
2013-08-01 19:48:00,70.0,59.0,29.90,SE,136,0.0,7.0,67,0.03,,,0.47,,2013-08-01 23:48:00,
2013-08-01 19:56:00,70.0,59.0,29.90,SE,136,0.0,7.0,67,0.03,,,0.47,,2013-08-01 23:56:00,
2013-08-01 20:08:00,70.0,59.0,29.90,SE,136,0.0,7.0,67,0.03,,,0.47,,2013-08-02 00:08:00,
2013-08-01 20:28:00,69.0,58.0,29.90,ESE,110,4.0,6.0,68,0.02,,,0.48,,2013-08-02 00:28:00,
2013-08-01 20:49:00,67.0,57.0,29.90,WSW,257,0.0,6.0,71,0.02,,,0.48,,2013-08-02 00:49:00,
2013-08-01 20:56:00,67.0,58.0,29.89,WSW,256,0.0,2.0,72,0.01,,,0.48,,2013-08-02 00:56:00,
2013-08-01 21:16:00,67.0,58.0,29.90,WSW,258,0.0,2.0,73,0.02,,,0.49,,2013-08-02 01:16:00,
2013-08-01 21:28:00,66.0,59.0,29.89,West,259,0.0,2.0,77,0.01,,,0.49,,2013-08-02 01:28:00,
2013-08-01 21:48:00,64.0,58.0,29.89,West,259,0.0,2.0,80,0.01,,,0.49,,2013-08-02 01:48:00,
2013-08-01 21:56:00,62.0,56.0,29.89,West,259,0.0,1.0,82,0.01,,,0.48,,2013-08-02 01:56:00,
2013-08-01 22:09:00,62.0,57.0,29.90,West,259,0.0,1.0,84,0.01,,,0.48,,2013-08-02 02:09:00,
2013-08-01 22:17:00,62.0,57.0,29.90,West,259,1.0,2.0,85,0.01,,,0.48,,2013-08-02 02:17:00,
2013-08-01 22:28:00,62.0,58.0,29.90,West,259,3.0,3.0,87,0.02,,,0.49,,2013-08-02 02:28:00,
2013-08-01 22:35:00,62.0,58.0,29.90,West,259,3.0,3.0,87,0.02,,,0.49,,2013-08-02 02:35:00,
2013-08-01 22:45:00,61.0,58.0,29.90,West,259,0.0,3.0,90,0.01,,,0.49,,2013-08-02 02:45:00,
2013-08-01 22:52:00,61.0,58.0,29.90,West,259,0.0,3.0,90,0.01,,,0.49,,2013-08-02 02:52:00,
2013-08-01 23:09:00,61.0,58.0,29.90,West,259,2.0,3.0,90,0.01,,,0.49,,2013-08-02 03:09:00,
2013-08-01 23:23:00,60.0,57.0,29.91,West,259,0.0,3.0,91,0.01,,,0.48,,2013-08-02 03:23:00,
2013-08-01 23:38:00,60.0,57.0,29.91,West,259,0.0,3.0,91,0.01,,,0.48,,2013-08-02 03:38:00,
2013-08-01 23:49:00,60.0,58.0,29.91,West,259,2.0,3.0,93,0.00,,,0.48,,2013-08-02 03:49:00,
2013-08-01 23:56:00,60.0,58.0,29.91,West,259,1.0,3.0,94,0.01,,,0.49,,2013-08-02 03:56:00,